sensor_id;sensor_type;location;lat;lon;timestamp;pressure;altitude;pressure_sealevel;temperature;humidity
67697;BME280;54486;51.442;6.778;2023-02-08T00:01:08;103784.41;;;-0.74;89.60
67697;BME280;54486;51.442;6.778;2023-02-08T00:03:36;103784.66;;;-0.71;89.78
67697;BME280;54486;51.442;6.778;2023-02-08T00:06:04;103783.13;;;-0.69;89.93
67697;BME280;54486;51.442;6.778;2023-02-08T00:08:31;103782.34;;;-0.78;90.18
67697;BME280;54486;51.442;6.778;2023-02-08T00:10:58;103774.13;;;-0.84;90.28
67697;BME280;54486;51.442;6.778;2023-02-08T00:13:25;103783.84;;;-0.80;90.65
67697;BME280;54486;51.442;6.778;2023-02-08T00:15:53;103780.78;;;-0.76;90.28
67697;BME280;54486;51.442;6.778;2023-02-08T00:18:20;103773.31;;;-0.83;90.82
67697;BME280;54486;51.442;6.778;2023-02-08T00:20:47;103780.00;;;-0.85;90.82
67697;BME280;54486;51.442;6.778;2023-02-08T00:23:14;103769.47;;;-0.88;91.01
67697;BME280;54486;51.442;6.778;2023-02-08T00:25:41;103772.28;;;-0.95;91.51
67697;BME280;54486;51.442;6.778;2023-02-08T00:28:10;103767.28;;;-0.93;91.53
67697;BME280;54486;51.442;6.778;2023-02-08T00:30:38;103758.81;;;-0.92;91.42
67697;BME280;54486;51.442;6.778;2023-02-08T00:33:05;103758.97;;;-0.91;91.37
67697;BME280;54486;51.442;6.778;2023-02-08T00:35:33;103757.56;;;-0.87;91.11
67697;BME280;54486;51.442;6.778;2023-02-08T00:38:00;103755.38;;;-0.93;91.26
67697;BME280;54486;51.442;6.778;2023-02-08T00:40:27;103748.19;;;-0.97;91.71
67697;BME280;54486;51.442;6.778;2023-02-08T00:42:53;103749.22;;;-0.95;91.76
67697;BME280;54486;51.442;6.778;2023-02-08T00:45:21;103746.66;;;-0.95;91.58
67697;BME280;54486;51.442;6.778;2023-02-08T00:47:49;103751.44;;;-0.89;91.77
67697;BME280;54486;51.442;6.778;2023-02-08T00:50:16;103745.13;;;-0.93;91.69
67697;BME280;54486;51.442;6.778;2023-02-08T00:52:42;103736.91;;;-0.89;91.30
67697;BME280;54486;51.442;6.778;2023-02-08T00:55:09;103741.53;;;-0.95;91.17
67697;BME280;54486;51.442;6.778;2023-02-08T00:57:36;103737.94;;;-0.97;91.26
67697;BME280;54486;51.442;6.778;2023-02-08T01:00:03;103741.25;;;-0.98;91.15
67697;BME280;54486;51.442;6.778;2023-02-08T01:02:31;103731.00;;;-0.98;91.05
67697;BME280;54486;51.442;6.778;2023-02-08T01:04:59;103735.59;;;-1.04;91.08
67697;BME280;54486;51.442;6.778;2023-02-08T01:07:26;103734.06;;;-1.02;91.53
67697;BME280;54486;51.442;6.778;2023-02-08T01:09:52;103728.94;;;-1.02;91.49
67697;BME280;54486;51.442;6.778;2023-02-08T01:12:20;103736.78;;;-1.00;91.28
67697;BME280;54486;51.442;6.778;2023-02-08T01:14:46;103741.47;;;-1.05;91.42
67697;BME280;54486;51.442;6.778;2023-02-08T01:17:14;103734.44;;;-1.08;91.47
67697;BME280;54486;51.442;6.778;2023-02-08T01:19:40;103736.88;;;-1.09;91.34
67697;BME280;54486;51.442;6.778;2023-02-08T01:22:08;103736.34;;;-1.15;91.21
67697;BME280;54486;51.442;6.778;2023-02-08T01:24:35;103738.13;;;-1.14;91.24
67697;BME280;54486;51.442;6.778;2023-02-08T01:27:03;103731.34;;;-1.14;91.22
67697;BME280;54486;51.442;6.778;2023-02-08T01:29:30;103737.09;;;-1.16;91.37
67697;BME280;54486;51.442;6.778;2023-02-08T01:31:57;103741.22;;;-1.18;91.40
67697;BME280;54486;51.442;6.778;2023-02-08T01:34:24;103735.44;;;-1.16;91.01
67697;BME280;54486;51.442;6.778;2023-02-08T01:36:52;103734.28;;;-1.19;91.57
67697;BME280;54486;51.442;6.778;2023-02-08T01:39:18;103729.66;;;-1.23;91.48
67697;BME280;54486;51.442;6.778;2023-02-08T01:41:45;103735.53;;;-1.24;91.68
67697;BME280;54486;51.442;6.778;2023-02-08T01:46:43;103721.84;;;-1.25;92.17
67697;BME280;54486;51.442;6.778;2023-02-08T01:49:12;103721.97;;;-1.23;91.30
67697;BME280;54486;51.442;6.778;2023-02-08T01:51:43;103722.44;;;-1.27;91.90
67697;BME280;54486;51.442;6.778;2023-02-08T01:54:11;103719.63;;;-1.30;91.89
67697;BME280;54486;51.442;6.778;2023-02-08T01:56:40;103720.78;;;-1.27;91.85
67697;BME280;54486;51.442;6.778;2023-02-08T01:59:10;103713.31;;;-1.34;92.00
67697;BME280;54486;51.442;6.778;2023-02-08T02:01:39;103726.03;;;-1.35;91.87
67697;BME280;54486;51.442;6.778;2023-02-08T02:04:06;103716.69;;;-1.35;92.11
67697;BME280;54486;51.442;6.778;2023-02-08T02:06:35;103715.78;;;-1.35;92.04
67697;BME280;54486;51.442;6.778;2023-02-08T02:09:09;103714.44;;;-1.40;91.84
67697;BME280;54486;51.442;6.778;2023-02-08T02:11:38;103723.41;;;-1.45;91.77
67697;BME280;54486;51.442;6.778;2023-02-08T02:14:06;103722.91;;;-1.41;91.79
67697;BME280;54486;51.442;6.778;2023-02-08T02:16:34;103728.53;;;-1.45;91.85
67697;BME280;54486;51.442;6.778;2023-02-08T02:19:07;103723.69;;;-1.42;91.99
67697;BME280;54486;51.442;6.778;2023-02-08T02:24:20;103718.19;;;-1.37;91.69
67697;BME280;54486;51.442;6.778;2023-02-08T02:32:08;103718.66;;;-1.51;92.62
67697;BME280;54486;51.442;6.778;2023-02-08T02:42:23;103710.19;;;-1.50;92.61
67697;BME280;54486;51.442;6.778;2023-02-08T02:45:19;103710.34;;;-1.48;92.50
67697;BME280;54486;51.442;6.778;2023-02-08T02:47:59;103699.56;;;-1.54;93.05
67697;BME280;54486;51.442;6.778;2023-02-08T02:50:29;103693.41;;;-1.56;92.96
67697;BME280;54486;51.442;6.778;2023-02-08T02:53:01;103689.59;;;-1.51;93.03
67697;BME280;54486;51.442;6.778;2023-02-08T02:55:31;103690.59;;;-1.49;92.25
67697;BME280;54486;51.442;6.778;2023-02-08T02:58:00;103693.69;;;-1.53;92.42
67697;BME280;54486;51.442;6.778;2023-02-08T03:00:27;103695.47;;;-1.52;92.30
67697;BME280;54486;51.442;6.778;2023-02-08T03:02:56;103697.47;;;-1.58;92.46
67697;BME280;54486;51.442;6.778;2023-02-08T03:05:24;103703.66;;;-1.56;92.92
67697;BME280;54486;51.442;6.778;2023-02-08T03:28:58;103723.56;;;-1.63;93.57
67697;BME280;54486;51.442;6.778;2023-02-08T03:34:12;103716.41;;;-1.67;93.27
67697;BME280;54486;51.442;6.778;2023-02-08T03:39:13;103718.44;;;-1.63;93.48
67697;BME280;54486;51.442;6.778;2023-02-08T03:41:43;103726.66;;;-1.67;93.51
67697;BME280;54486;51.442;6.778;2023-02-08T03:44:14;103722.69;;;-1.63;93.15
67697;BME280;54486;51.442;6.778;2023-02-08T03:46:55;103715.06;;;-1.72;93.04
67697;BME280;54486;51.442;6.778;2023-02-08T03:49:27;103717.63;;;-1.72;93.47
67697;BME280;54486;51.442;6.778;2023-02-08T03:51:57;103718.41;;;-1.73;93.19
67697;BME280;54486;51.442;6.778;2023-02-08T03:54:26;103718.28;;;-1.74;93.46
67697;BME280;54486;51.442;6.778;2023-02-08T03:59:35;103724.28;;;-1.74;93.13
67697;BME280;54486;51.442;6.778;2023-02-08T04:02:05;103715.22;;;-1.70;92.69
67697;BME280;54486;51.442;6.778;2023-02-08T04:04:33;103713.69;;;-1.68;92.37
67697;BME280;54486;51.442;6.778;2023-02-08T04:07:01;103712.53;;;-1.72;92.62
67697;BME280;54486;51.442;6.778;2023-02-08T04:09:28;103710.75;;;-1.73;92.79
67697;BME280;54486;51.442;6.778;2023-02-08T04:11:54;103711.06;;;-1.78;92.60
67697;BME280;54486;51.442;6.778;2023-02-08T04:14:21;103723.47;;;-1.83;92.53
67697;BME280;54486;51.442;6.778;2023-02-08T04:16:48;103727.06;;;-1.81;92.78
67697;BME280;54486;51.442;6.778;2023-02-08T04:19:15;103723.47;;;-1.83;92.84
67697;BME280;54486;51.442;6.778;2023-02-08T04:21:42;103719.84;;;-1.85;92.98
67697;BME280;54486;51.442;6.778;2023-02-08T04:24:09;103727.78;;;-1.92;92.97
67697;BME280;54486;51.442;6.778;2023-02-08T04:26:36;103721.75;;;-1.92;93.08
67697;BME280;54486;51.442;6.778;2023-02-08T04:29:03;103728.03;;;-1.89;93.69
67697;BME280;54486;51.442;6.778;2023-02-08T04:31:30;103727.63;;;-1.93;93.36
67697;BME280;54486;51.442;6.778;2023-02-08T04:33:57;103731.34;;;-1.90;93.62
67697;BME280;54486;51.442;6.778;2023-02-08T04:36:25;103724.16;;;-1.94;93.67
67697;BME280;54486;51.442;6.778;2023-02-08T04:38:52;103725.97;;;-1.93;93.39
67697;BME280;54486;51.442;6.778;2023-02-08T04:41:19;103734.41;;;-1.94;93.46
67697;BME280;54486;51.442;6.778;2023-02-08T04:43:45;103733.38;;;-1.96;93.50
67697;BME280;54486;51.442;6.778;2023-02-08T04:46:12;103730.66;;;-1.97;93.42
67697;BME280;54486;51.442;6.778;2023-02-08T04:48:40;103734.75;;;-1.99;93.43
67697;BME280;54486;51.442;6.778;2023-02-08T04:51:06;103742.56;;;-1.98;93.31
67697;BME280;54486;51.442;6.778;2023-02-08T04:53:33;103732.03;;;-2.01;93.36
67697;BME280;54486;51.442;6.778;2023-02-08T04:56:00;103728.72;;;-2.00;93.40
67697;BME280;54486;51.442;6.778;2023-02-08T04:58:27;103738.47;;;-1.96;93.21
67697;BME280;54486;51.442;6.778;2023-02-08T05:00:54;103725.41;;;-1.99;93.03
67697;BME280;54486;51.442;6.778;2023-02-08T05:03:21;103722.84;;;-1.99;93.12
67697;BME280;54486;51.442;6.778;2023-02-08T05:05:55;103729.44;;;-1.92;92.64
67697;BME280;54486;51.442;6.778;2023-02-08T05:08:22;103722.50;;;-1.93;92.59
67697;BME280;54486;51.442;6.778;2023-02-08T05:10:49;103726.31;;;-1.98;92.83
67697;BME280;54486;51.442;6.778;2023-02-08T05:13:16;103727.22;;;-1.98;93.03
67697;BME280;54486;51.442;6.778;2023-02-08T05:15:43;103730.38;;;-2.00;93.03
67697;BME280;54486;51.442;6.778;2023-02-08T05:18:10;103732.81;;;-2.02;93.45
67697;BME280;54486;51.442;6.778;2023-02-08T05:20:37;103723.88;;;-1.97;93.07
67697;BME280;54486;51.442;6.778;2023-02-08T05:23:04;103725.16;;;-2.02;93.19
67697;BME280;54486;51.442;6.778;2023-02-08T05:25:32;103718.38;;;-2.01;93.25
67697;BME280;54486;51.442;6.778;2023-02-08T05:27:59;103718.50;;;-2.00;93.29
67697;BME280;54486;51.442;6.778;2023-02-08T05:30:26;103722.84;;;-1.99;93.58
67697;BME280;54486;51.442;6.778;2023-02-08T05:32:53;103718.38;;;-2.01;93.17
67697;BME280;54486;51.442;6.778;2023-02-08T05:35:20;103725.63;;;-2.06;93.37
67697;BME280;54486;51.442;6.778;2023-02-08T05:37:46;103728.44;;;-2.03;93.43
67697;BME280;54486;51.442;6.778;2023-02-08T05:40:13;103733.84;;;-2.00;92.94
67697;BME280;54486;51.442;6.778;2023-02-08T05:42:40;103736.00;;;-2.04;92.96
67697;BME280;54486;51.442;6.778;2023-02-08T05:45:07;103733.56;;;-2.03;93.32
67697;BME280;54486;51.442;6.778;2023-02-08T05:47:35;103730.00;;;-2.05;92.85
67697;BME280;54486;51.442;6.778;2023-02-08T05:50:02;103733.56;;;-2.03;93.05
67697;BME280;54486;51.442;6.778;2023-02-08T05:52:29;103729.06;;;-2.05;92.86
67697;BME280;54486;51.442;6.778;2023-02-08T05:54:55;103731.47;;;-2.07;92.82
67697;BME280;54486;51.442;6.778;2023-02-08T05:57:22;103725.34;;;-2.09;93.06
67697;BME280;54486;51.442;6.778;2023-02-08T05:59:49;103736.59;;;-2.07;92.75
67697;BME280;54486;51.442;6.778;2023-02-08T06:02:16;103736.03;;;-2.13;92.54
67697;BME280;54486;51.442;6.778;2023-02-08T06:04:42;103736.31;;;-2.10;92.86
67697;BME280;54486;51.442;6.778;2023-02-08T06:07:10;103741.72;;;-2.07;92.32
67697;BME280;54486;51.442;6.778;2023-02-08T06:09:37;103736.88;;;-2.04;92.30
67697;BME280;54486;51.442;6.778;2023-02-08T06:12:03;103732.94;;;-2.00;92.15
67697;BME280;54486;51.442;6.778;2023-02-08T06:14:31;103740.50;;;-2.02;91.86
67697;BME280;54486;51.442;6.778;2023-02-08T06:16:58;103742.91;;;-2.03;91.58
67697;BME280;54486;51.442;6.778;2023-02-08T06:19:24;103745.66;;;-2.10;92.18
67697;BME280;54486;51.442;6.778;2023-02-08T06:21:52;103741.44;;;-2.10;91.95
67697;BME280;54486;51.442;6.778;2023-02-08T06:24:18;103742.97;;;-2.12;92.61
67697;BME280;54486;51.442;6.778;2023-02-08T06:26:45;103732.75;;;-2.12;92.33
67697;BME280;54486;51.442;6.778;2023-02-08T06:29:12;103743.41;;;-2.07;92.33
67697;BME280;54486;51.442;6.778;2023-02-08T06:31:58;103735.16;;;-2.14;91.79
67697;BME280;54486;51.442;6.778;2023-02-08T06:34:25;103733.50;;;-2.13;92.57
67697;BME280;54486;51.442;6.778;2023-02-08T06:36:52;103732.59;;;-2.14;92.10
67697;BME280;54486;51.442;6.778;2023-02-08T06:39:20;103726.88;;;-2.11;91.90
67697;BME280;54486;51.442;6.778;2023-02-08T06:41:47;103725.25;;;-2.19;92.45
67697;BME280;54486;51.442;6.778;2023-02-08T06:44:13;103714.84;;;-2.12;92.02
67697;BME280;54486;51.442;6.778;2023-02-08T06:46:41;103725.81;;;-2.13;91.76
67697;BME280;54486;51.442;6.778;2023-02-08T06:49:08;103718.66;;;-2.17;91.58
67697;BME280;54486;51.442;6.778;2023-02-08T06:51:35;103721.97;;;-2.18;91.47
67697;BME280;54486;51.442;6.778;2023-02-08T06:54:02;103717.88;;;-2.16;91.82
67697;BME280;54486;51.442;6.778;2023-02-08T06:56:29;103715.31;;;-2.16;92.06
67697;BME280;54486;51.442;6.778;2023-02-08T06:58:56;103711.25;;;-2.14;92.04
67697;BME280;54486;51.442;6.778;2023-02-08T07:01:24;103715.25;;;-2.07;91.80
67697;BME280;54486;51.442;6.778;2023-02-08T07:03:51;103712.28;;;-2.12;91.79
67697;BME280;54486;51.442;6.778;2023-02-08T07:06:18;103715.59;;;-2.13;92.29
67697;BME280;54486;51.442;6.778;2023-02-08T07:08:45;103711.72;;;-2.18;91.62
67697;BME280;54486;51.442;6.778;2023-02-08T07:11:13;103716.66;;;-2.11;91.62
67697;BME280;54486;51.442;6.778;2023-02-08T07:13:41;103709.56;;;-2.14;91.92
67697;BME280;54486;51.442;6.778;2023-02-08T07:16:08;103711.84;;;-2.17;91.80
67697;BME280;54486;51.442;6.778;2023-02-08T07:18:35;103718.66;;;-2.17;92.21
67697;BME280;54486;51.442;6.778;2023-02-08T07:21:02;103712.91;;;-2.15;92.15
67697;BME280;54486;51.442;6.778;2023-02-08T07:23:29;103717.13;;;-2.15;92.00
67697;BME280;54486;51.442;6.778;2023-02-08T07:26:00;103712.81;;;-2.06;92.04
67697;BME280;54486;51.442;6.778;2023-02-08T07:28:27;103709.53;;;-2.05;91.70
67697;BME280;54486;51.442;6.778;2023-02-08T07:30:55;103713.09;;;-2.03;92.02
67697;BME280;54486;51.442;6.778;2023-02-08T07:33:22;103711.28;;;-2.04;92.18
67697;BME280;54486;51.442;6.778;2023-02-08T07:35:49;103704.69;;;-2.02;92.33
67697;BME280;54486;51.442;6.778;2023-02-08T07:38:16;103705.69;;;-2.00;91.88
67697;BME280;54486;51.442;6.778;2023-02-08T07:40:46;103704.94;;;-1.99;92.22
67697;BME280;54486;51.442;6.778;2023-02-08T07:43:13;103699.09;;;-1.98;91.90
67697;BME280;54486;51.442;6.778;2023-02-08T07:45:40;103700.09;;;-1.96;92.17
67697;BME280;54486;51.442;6.778;2023-02-08T07:48:07;103689.78;;;-1.87;91.76
67697;BME280;54486;51.442;6.778;2023-02-08T07:50:35;103693.25;;;-1.87;91.89
67697;BME280;54486;51.442;6.778;2023-02-08T07:53:01;103697.34;;;-1.89;91.79
67697;BME280;54486;51.442;6.778;2023-02-08T07:55:28;103697.88;;;-1.83;92.31
67697;BME280;54486;51.442;6.778;2023-02-08T07:57:55;103701.47;;;-1.81;92.26
67697;BME280;54486;51.442;6.778;2023-02-08T08:00:23;103690.59;;;-1.78;91.81
67697;BME280;54486;51.442;6.778;2023-02-08T08:02:50;103692.66;;;-1.74;91.89
67697;BME280;54486;51.442;6.778;2023-02-08T08:05:17;103690.53;;;-1.70;92.30
67697;BME280;54486;51.442;6.778;2023-02-08T08:07:44;103697.44;;;-1.69;91.92
67697;BME280;54486;51.442;6.778;2023-02-08T08:10:11;103696.94;;;-1.65;91.84
67697;BME280;54486;51.442;6.778;2023-02-08T08:12:38;103697.84;;;-1.64;91.96
67697;BME280;54486;51.442;6.778;2023-02-08T08:15:06;103690.06;;;-1.55;91.90
67697;BME280;54486;51.442;6.778;2023-02-08T08:17:32;103697.00;;;-1.54;92.01
67697;BME280;54486;51.442;6.778;2023-02-08T08:19:59;103694.56;;;-1.53;92.08
67697;BME280;54486;51.442;6.778;2023-02-08T08:22:26;103700.84;;;-1.49;92.23
67697;BME280;54486;51.442;6.778;2023-02-08T08:24:53;103689.63;;;-1.41;92.14
67697;BME280;54486;51.442;6.778;2023-02-08T08:27:21;103681.72;;;-1.34;91.87
67697;BME280;54486;51.442;6.778;2023-02-08T08:29:48;103692.50;;;-1.28;92.09
67697;BME280;54486;51.442;6.778;2023-02-08T08:32:14;103684.03;;;-1.27;91.90
67697;BME280;54486;51.442;6.778;2023-02-08T08:34:41;103689.16;;;-1.27;92.15
67697;BME280;54486;51.442;6.778;2023-02-08T08:37:08;103692.53;;;-1.18;92.00
67697;BME280;54486;51.442;6.778;2023-02-08T08:39:35;103683.84;;;-1.10;91.82
67697;BME280;54486;51.442;6.778;2023-02-08T08:42:03;103674.38;;;-1.01;91.36
67697;BME280;54486;51.442;6.778;2023-02-08T08:44:30;103673.13;;;-0.96;91.45
67697;BME280;54486;51.442;6.778;2023-02-08T08:46:57;103676.19;;;-0.90;91.28
67697;BME280;54486;51.442;6.778;2023-02-08T08:49:25;103670.53;;;-0.86;90.32
67697;BME280;54486;51.442;6.778;2023-02-08T08:51:52;103668.00;;;-0.76;90.09
67697;BME280;54486;51.442;6.778;2023-02-08T08:54:20;103668.50;;;-0.70;89.74
67697;BME280;54486;51.442;6.778;2023-02-08T08:56:47;103670.06;;;-0.62;88.72
67697;BME280;54486;51.442;6.778;2023-02-08T08:59:14;103660.31;;;-0.56;87.77
67697;BME280;54486;51.442;6.778;2023-02-08T09:01:41;103665.19;;;-0.48;87.20
67697;BME280;54486;51.442;6.778;2023-02-08T09:04:09;103659.00;;;-0.40;87.00
67697;BME280;54486;51.442;6.778;2023-02-08T09:06:36;103678.53;;;-0.32;86.57
67697;BME280;54486;51.442;6.778;2023-02-08T09:09:05;103678.38;;;-0.24;85.93
67697;BME280;54486;51.442;6.778;2023-02-08T09:11:33;103672.19;;;-0.16;85.25
67697;BME280;54486;51.442;6.778;2023-02-08T09:14:03;103679.50;;;0.00;83.79
67697;BME280;54486;51.442;6.778;2023-02-08T09:16:31;103682.00;;;0.10;80.25
67697;BME280;54486;51.442;6.778;2023-02-08T09:19:02;103674.53;;;0.23;79.52
67697;BME280;54486;51.442;6.778;2023-02-08T09:21:30;103672.91;;;0.45;73.78
67697;BME280;54486;51.442;6.778;2023-02-08T09:23:57;103665.16;;;0.56;73.62
67697;BME280;54486;51.442;6.778;2023-02-08T09:26:25;103665.66;;;0.62;74.09
67697;BME280;54486;51.442;6.778;2023-02-08T09:28:52;103674.03;;;0.81;68.87
67697;BME280;54486;51.442;6.778;2023-02-08T09:31:23;103673.72;;;0.88;68.82
67697;BME280;54486;51.442;6.778;2023-02-08T09:33:52;103665.16;;;0.99;67.29
67697;BME280;54486;51.442;6.778;2023-02-08T09:36:19;103665.94;;;1.20;63.67
67697;BME280;54486;51.442;6.778;2023-02-08T09:38:47;103667.31;;;1.26;62.37
67697;BME280;54486;51.442;6.778;2023-02-08T09:41:20;103664.88;;;1.39;62.21
67697;BME280;54486;51.442;6.778;2023-02-08T09:46:25;103675.88;;;1.48;63.30
67697;BME280;54486;51.442;6.778;2023-02-08T09:48:54;103675.88;;;1.60;60.67
67697;BME280;54486;51.442;6.778;2023-02-08T09:53:51;103680.84;;;1.69;63.72
67697;BME280;54486;51.442;6.778;2023-02-08T09:56:23;103680.84;;;1.69;65.47
67697;BME280;54486;51.442;6.778;2023-02-08T09:58:52;103686.31;;;1.73;67.49
67697;BME280;54486;51.442;6.778;2023-02-08T10:01:25;103686.13;;;1.82;66.93
67697;BME280;54486;51.442;6.778;2023-02-08T10:04:12;103686.47;;;1.98;65.14
67697;BME280;54486;51.442;6.778;2023-02-08T10:06:41;103677.97;;;1.99;65.31
67697;BME280;54486;51.442;6.778;2023-02-08T10:09:10;103676.63;;;2.04;65.86
67697;BME280;54486;51.442;6.778;2023-02-08T10:14:30;103682.22;;;2.10;65.72
67697;BME280;54486;51.442;6.778;2023-02-08T10:22:07;103675.06;;;2.29;63.10
67697;BME280;54486;51.442;6.778;2023-02-08T10:27:13;103676.16;;;2.44;61.08
67697;BME280;54486;51.442;6.778;2023-02-08T10:29:59;103679.59;;;2.56;56.46
67697;BME280;54486;51.442;6.778;2023-02-08T10:32:37;103674.13;;;2.63;57.67
67697;BME280;54486;51.442;6.778;2023-02-08T10:35:09;103667.59;;;2.68;57.75
67697;BME280;54486;51.442;6.778;2023-02-08T10:37:37;103667.09;;;2.86;55.95
67697;BME280;54486;51.442;6.778;2023-02-08T10:40:23;103661.69;;;2.94;54.36
67697;BME280;54486;51.442;6.778;2023-02-08T10:42:58;103662.78;;;2.98;55.21
67697;BME280;54486;51.442;6.778;2023-02-08T10:45:28;103668.38;;;3.04;51.47
67697;BME280;54486;51.442;6.778;2023-02-08T10:47:57;103660.69;;;3.17;51.98
67697;BME280;54486;51.442;6.778;2023-02-08T10:50:34;103658.88;;;3.16;53.96
67697;BME280;54486;51.442;6.778;2023-02-08T10:53:02;103657.13;;;3.15;54.58
67697;BME280;54486;51.442;6.778;2023-02-08T10:55:30;103654.19;;;3.22;53.16
67697;BME280;54486;51.442;6.778;2023-02-08T10:58:01;103656.97;;;3.25;53.66
67697;BME280;54486;51.442;6.778;2023-02-08T11:00:32;103649.63;;;3.31;53.33
67697;BME280;54486;51.442;6.778;2023-02-08T11:03:01;103651.44;;;3.45;52.96
67697;BME280;54486;51.442;6.778;2023-02-08T11:08:03;103646.53;;;3.61;52.08
67697;BME280;54486;51.442;6.778;2023-02-08T11:10:31;103648.53;;;3.65;50.93
67697;BME280;54486;51.442;6.778;2023-02-08T11:13:03;103639.38;;;3.70;51.42
67697;BME280;54486;51.442;6.778;2023-02-08T11:15:45;103637.00;;;3.73;50.07
67697;BME280;54486;51.442;6.778;2023-02-08T11:20:49;103628.88;;;3.94;47.43
67697;BME280;54486;51.442;6.778;2023-02-08T11:25:47;103616.09;;;4.08;45.48
67697;BME280;54486;51.442;6.778;2023-02-08T11:28:28;103616.31;;;4.52;42.76
67697;BME280;54486;51.442;6.778;2023-02-08T11:30:59;103612.06;;;4.67;42.52
67697;BME280;54486;51.442;6.778;2023-02-08T11:33:28;103611.25;;;4.82;41.60
67697;BME280;54486;51.442;6.778;2023-02-08T11:35:59;103605.00;;;4.78;43.64
67697;BME280;54486;51.442;6.778;2023-02-08T11:38:27;103607.66;;;4.79;41.94
67697;BME280;54486;51.442;6.778;2023-02-08T11:40:56;103606.25;;;4.85;41.48
67697;BME280;54486;51.442;6.778;2023-02-08T11:43:31;103602.53;;;4.94;39.20
67697;BME280;54486;51.442;6.778;2023-02-08T11:46:00;103594.84;;;4.96;37.51
67697;BME280;54486;51.442;6.778;2023-02-08T11:48:44;103594.66;;;4.93;38.98
67697;BME280;54486;51.442;6.778;2023-02-08T11:51:22;103592.69;;;4.89;39.22
67697;BME280;54486;51.442;6.778;2023-02-08T11:53:51;103588.78;;;4.95;38.82
67697;BME280;54486;51.442;6.778;2023-02-08T11:56:20;103587.69;;;4.92;40.53
67697;BME280;54486;51.442;6.778;2023-02-08T12:01:24;103580.38;;;4.85;40.38
67697;BME280;54486;51.442;6.778;2023-02-08T12:03:52;103579.06;;;4.91;39.49
67697;BME280;54486;51.442;6.778;2023-02-08T12:06:42;103573.03;;;5.20;34.71
67697;BME280;54486;51.442;6.778;2023-02-08T12:11:59;103566.84;;;5.18;36.33
67697;BME280;54486;51.442;6.778;2023-02-08T12:20:03;103557.22;;;5.59;34.44
67697;BME280;54486;51.442;6.778;2023-02-08T12:22:36;103554.28;;;5.53;35.02
67697;BME280;54486;51.442;6.778;2023-02-08T12:25:27;103539.69;;;5.55;33.09
67697;BME280;54486;51.442;6.778;2023-02-08T12:28:13;103545.94;;;5.73;33.26
67697;BME280;54486;51.442;6.778;2023-02-08T12:33:31;103543.97;;;5.69;34.28
67697;BME280;54486;51.442;6.778;2023-02-08T12:38:49;103533.28;;;5.63;35.44
67697;BME280;54486;51.442;6.778;2023-02-08T12:41:55;103536.22;;;5.69;33.78
67697;BME280;54486;51.442;6.778;2023-02-08T12:52:24;103525.41;;;5.76;32.89
67697;BME280;54486;51.442;6.778;2023-02-08T12:57:41;103514.28;;;5.94;34.22
67697;BME280;54486;51.442;6.778;2023-02-08T13:00:23;103513.53;;;6.11;32.30
67697;BME280;54486;51.442;6.778;2023-02-08T13:05:24;103508.00;;;6.05;34.11
67697;BME280;54486;51.442;6.778;2023-02-08T13:07:57;103498.75;;;6.10;33.90
67697;BME280;54486;51.442;6.778;2023-02-08T13:12:54;103495.88;;;6.20;31.11
67697;BME280;54486;51.442;6.778;2023-02-08T13:15:24;103486.50;;;6.38;30.55
67697;BME280;54486;51.442;6.778;2023-02-08T13:17:57;103483.22;;;6.26;31.74
67697;BME280;54486;51.442;6.778;2023-02-08T13:22:51;103469.13;;;6.53;31.01
67697;BME280;54486;51.442;6.778;2023-02-08T13:25:31;103458.91;;;6.56;31.49
67697;BME280;54486;51.442;6.778;2023-02-08T13:28:01;103457.28;;;6.58;30.49
67697;BME280;54486;51.442;6.778;2023-02-08T13:30:29;103451.94;;;6.55;31.75
67697;BME280;54486;51.442;6.778;2023-02-08T13:32:56;103453.25;;;6.47;31.36
67697;BME280;54486;51.442;6.778;2023-02-08T13:35:28;103453.97;;;6.45;33.29
67697;BME280;54486;51.442;6.778;2023-02-08T13:38:06;103448.72;;;6.43;32.06
67697;BME280;54486;51.442;6.778;2023-02-08T13:40:42;103442.72;;;6.44;32.63
67697;BME280;54486;51.442;6.778;2023-02-08T13:43:31;103432.34;;;6.44;33.63
67697;BME280;54486;51.442;6.778;2023-02-08T13:46:05;103424.22;;;6.54;32.91
67697;BME280;54486;51.442;6.778;2023-02-08T13:48:39;103426.78;;;6.70;33.41
67697;BME280;54486;51.442;6.778;2023-02-08T13:51:15;103428.16;;;6.98;30.86
67697;BME280;54486;51.442;6.778;2023-02-08T13:59:22;103415.13;;;7.14;31.10
67697;BME280;54486;51.442;6.778;2023-02-08T14:04:45;103405.03;;;7.20;32.01
67697;BME280;54486;51.442;6.778;2023-02-08T14:07:29;103412.03;;;7.21;32.17
67697;BME280;54486;51.442;6.778;2023-02-08T14:17:48;103398.16;;;7.57;29.74
67697;BME280;54486;51.442;6.778;2023-02-08T14:20:20;103393.53;;;7.69;30.02
67697;BME280;54486;51.442;6.778;2023-02-08T14:22:48;103388.94;;;7.81;30.80
67697;BME280;54486;51.442;6.778;2023-02-08T14:25:19;103382.88;;;8.02;31.73
67697;BME280;54486;51.442;6.778;2023-02-08T14:27:57;103383.59;;;8.17;31.87
67697;BME280;54486;51.442;6.778;2023-02-08T14:30:31;103373.75;;;8.29;29.14
67697;BME280;54486;51.442;6.778;2023-02-08T14:35:29;103364.13;;;8.88;32.54
67697;BME280;54486;51.442;6.778;2023-02-08T14:40:46;103354.84;;;9.16;31.24
67697;BME280;54486;51.442;6.778;2023-02-08T14:45:48;103344.53;;;9.19;31.85
67697;BME280;54486;51.442;6.778;2023-02-08T14:50:57;103333.91;;;9.35;30.30
67697;BME280;54486;51.442;6.778;2023-02-08T14:53:27;103329.13;;;9.47;30.72
67697;BME280;54486;51.442;6.778;2023-02-08T14:56:44;103334.41;;;9.48;28.24
67697;BME280;54486;51.442;6.778;2023-02-08T14:58:54;103338.59;;;9.45;27.38
67697;BME280;54486;51.442;6.778;2023-02-08T15:03:57;103334.81;;;9.83;30.92
67697;BME280;54486;51.442;6.778;2023-02-08T15:09:04;103326.00;;;10.03;29.99
67697;BME280;54486;51.442;6.778;2023-02-08T15:11:33;103317.47;;;10.08;30.29
67697;BME280;54486;51.442;6.778;2023-02-08T15:14:03;103313.38;;;10.14;28.58
67697;BME280;54486;51.442;6.778;2023-02-08T15:16:33;103318.97;;;10.49;29.90
67697;BME280;54486;51.442;6.778;2023-02-08T15:19:02;103315.03;;;11.15;32.90
67697;BME280;54486;51.442;6.778;2023-02-08T15:21:30;103307.34;;;11.50;32.09